createdAt,value
2018-04-09T00:00:11.254Z,15.61
2018-04-09T00:02:41.239Z,15.61
2018-04-09T00:05:10.495Z,15.61
2018-04-09T00:07:39.843Z,15.57
2018-04-09T00:10:09.062Z,15.44
2018-04-09T00:12:38.394Z,15.40
2018-04-09T00:15:07.595Z,15.41
2018-04-09T00:17:36.846Z,15.39
2018-04-09T00:20:06.056Z,15.35
2018-04-09T00:22:35.347Z,15.28
2018-04-09T00:25:05.371Z,15.25
2018-04-09T00:27:35.350Z,15.13
2018-04-09T00:30:04.583Z,15.12
2018-04-09T00:32:34.591Z,15.10
2018-04-09T00:35:03.791Z,15.11
2018-04-09T00:37:33.780Z,15.03
2018-04-09T00:40:03.322Z,15.00
2018-04-09T00:42:33.288Z,15.02
2018-04-09T00:45:02.500Z,14.99
2018-04-09T00:47:31.684Z,14.88
2018-04-09T00:50:00.886Z,14.84
2018-04-09T00:52:30.130Z,14.83
2018-04-09T00:54:59.359Z,14.78
2018-04-09T00:57:28.599Z,14.78
2018-04-09T00:59:58.701Z,14.75
2018-04-09T01:02:27.912Z,14.68
2018-04-09T01:04:57.164Z,14.68
2018-04-09T01:07:26.745Z,14.64
2018-04-09T01:09:56.082Z,14.66
2018-04-09T01:12:25.290Z,14.63
2018-04-09T01:14:54.518Z,14.62
2018-04-09T01:17:24.571Z,14.59
2018-04-09T01:19:53.827Z,14.56
2018-04-09T01:22:23.085Z,14.40
2018-04-09T01:24:52.285Z,14.41
2018-04-09T01:27:21.630Z,14.40
2018-04-09T01:29:50.879Z,14.39
2018-04-09T01:32:20.092Z,14.38
2018-04-09T01:34:49.336Z,14.36
2018-04-09T01:37:20.304Z,14.33
2018-04-09T01:39:49.711Z,14.31
2018-04-09T01:42:19.726Z,14.29
2018-04-09T01:44:48.975Z,14.18
2018-04-09T01:47:19.707Z,14.16
2018-04-09T01:49:48.976Z,14.20
2018-04-09T01:52:18.197Z,14.20
2018-04-09T01:54:47.402Z,14.25
2018-04-09T01:57:16.638Z,14.29
2018-04-09T01:59:45.872Z,14.28
2018-04-09T02:02:15.121Z,14.23
2018-04-09T02:04:45.075Z,14.29
2018-04-09T02:07:14.315Z,14.30
2018-04-09T02:09:43.557Z,14.29
2018-04-09T02:12:12.783Z,14.25
2018-04-09T02:14:42.018Z,14.22
2018-04-09T02:17:11.210Z,14.20
2018-04-09T02:19:40.438Z,14.18
2018-04-09T02:22:09.671Z,14.13
2018-04-09T02:24:38.894Z,14.11
2018-04-09T02:27:08.136Z,14.09
2018-04-09T02:29:37.356Z,14.10
2018-04-09T02:32:06.561Z,14.06
2018-04-09T02:34:35.783Z,14.02
2018-04-09T02:37:05.038Z,14.01
2018-04-09T02:39:34.269Z,14.00
2018-04-09T02:42:04.250Z,13.98
2018-04-09T02:44:33.604Z,13.95
2018-04-09T02:47:02.907Z,13.91
2018-04-09T02:49:32.139Z,13.92
2018-04-09T02:52:01.355Z,13.92
2018-04-09T02:54:30.579Z,13.85
2018-04-09T02:56:59.780Z,13.77
2018-04-09T02:59:29.045Z,13.70
2018-04-09T03:01:58.243Z,13.66
2018-04-09T03:04:28.243Z,13.61
2018-04-09T03:06:57.566Z,13.62
2018-04-09T03:09:26.887Z,13.64
2018-04-09T03:11:57.003Z,13.59
2018-04-09T03:14:26.204Z,13.56
2018-04-09T03:16:55.451Z,13.50
2018-04-09T03:19:24.668Z,13.42
2018-04-09T03:21:53.884Z,13.40
2018-04-09T03:24:23.077Z,13.39
2018-04-09T03:26:52.291Z,13.37
2018-04-09T03:29:21.504Z,13.33
2018-04-09T03:31:51.529Z,13.31
2018-04-09T03:34:21.566Z,13.29
2018-04-09T03:36:50.779Z,13.30
2018-04-09T03:39:20.031Z,13.30
2018-04-09T03:41:49.259Z,13.28
2018-04-09T03:44:18.465Z,13.32
2018-04-09T03:46:47.734Z,13.31
2018-04-09T03:49:16.931Z,13.38
2018-04-09T03:51:46.926Z,13.38
2018-04-09T03:54:16.122Z,13.41
2018-04-09T03:56:45.373Z,13.40
2018-04-09T03:59:15.323Z,13.40
2018-04-09T04:01:44.613Z,13.41
2018-04-09T04:04:13.858Z,13.35
2018-04-09T04:06:43.062Z,13.36
2018-04-09T04:09:13.027Z,13.38
2018-04-09T04:11:42.251Z,13.36
2018-04-09T04:14:11.486Z,13.30
2018-04-09T04:16:58.235Z,13.27
2018-04-09T04:19:45.238Z,13.25
2018-04-09T04:22:14.455Z,13.27
2018-04-09T04:24:43.696Z,13.21
2018-04-09T04:27:13.663Z,13.21
2018-04-09T04:29:42.926Z,13.21
2018-04-09T04:32:12.122Z,13.21
2018-04-09T04:34:42.334Z,13.17
2018-04-09T04:37:12.300Z,13.16
2018-04-09T04:39:42.294Z,13.10
2018-04-09T04:42:11.493Z,13.09
2018-04-09T04:44:40.737Z,13.07
2018-04-09T04:47:10.014Z,13.06
2018-04-09T04:49:39.273Z,13.00
2018-04-09T04:52:08.462Z,12.96
2018-04-09T04:54:37.683Z,12.95
2018-04-09T04:57:06.898Z,12.94
2018-04-09T04:59:36.110Z,12.97
2018-04-09T05:02:06.126Z,12.97
2018-04-09T05:04:35.355Z,12.91
2018-04-09T05:07:05.406Z,12.88
2018-04-09T05:09:34.627Z,12.84
2018-04-09T05:12:05.404Z,12.83
2018-04-09T05:14:35.405Z,12.82
2018-04-09T05:17:05.376Z,12.83
2018-04-09T05:19:34.615Z,12.84
2018-04-09T05:22:03.883Z,12.86
2018-04-09T05:24:33.099Z,12.87
2018-04-09T05:27:02.343Z,12.90
2018-04-09T05:29:31.551Z,12.95
2018-04-09T05:32:00.793Z,12.97
2018-04-09T05:34:29.950Z,12.97
2018-04-09T05:36:59.174Z,13.02
2018-04-09T05:39:28.421Z,13.04
2018-04-09T05:41:58.419Z,13.07
2018-04-09T05:44:28.394Z,13.17
2018-04-09T05:46:57.701Z,13.26
2018-04-09T05:49:26.902Z,13.33
2018-04-09T05:51:57.161Z,13.46
2018-04-09T05:54:27.190Z,13.53
2018-04-09T05:56:56.396Z,13.59
2018-04-09T05:59:25.618Z,13.67
2018-04-09T06:01:54.851Z,13.70
2018-04-09T06:04:24.079Z,13.80
2018-04-09T06:06:53.282Z,13.88
2018-04-09T06:09:22.603Z,13.99
2018-04-09T06:11:52.561Z,14.09
2018-04-09T06:14:21.791Z,14.24
2018-04-09T06:16:51.754Z,14.41
2018-04-09T06:19:21.067Z,14.55
2018-04-09T06:21:50.296Z,14.71
2018-04-09T06:24:20.289Z,14.86
2018-04-09T06:26:49.511Z,14.94
2018-04-09T06:29:19.519Z,15.00
2018-04-09T06:31:49.071Z,15.08
2018-04-09T06:34:18.298Z,15.16
2018-04-09T06:36:47.535Z,15.22
2018-04-09T06:39:17.564Z,15.26
2018-04-09T06:41:47.599Z,15.28
2018-04-09T06:44:17.610Z,15.31
2018-04-09T06:46:47.540Z,15.37
2018-04-09T06:49:16.802Z,15.44
2018-04-09T06:51:46.778Z,15.49
2018-04-09T06:54:15.997Z,15.59
2018-04-09T06:56:45.259Z,15.67
2018-04-09T06:59:14.452Z,15.74
2018-04-09T07:01:43.695Z,15.85
2018-04-09T07:04:13.677Z,16.01
2018-04-09T07:06:42.913Z,16.06
2018-04-09T07:09:12.892Z,16.12
2018-04-09T07:11:42.262Z,16.12
2018-04-09T07:14:11.443Z,16.17
2018-04-09T07:16:40.687Z,16.15
2018-04-09T07:19:09.912Z,16.15
2018-04-09T07:21:40.682Z,16.15
2018-04-09T07:24:10.564Z,16.26
2018-04-09T07:26:40.566Z,16.40
2018-04-09T07:29:09.826Z,16.52
2018-04-09T07:31:39.091Z,16.61
2018-04-09T07:34:08.348Z,16.70
2018-04-09T07:36:37.607Z,16.77
2018-04-09T07:39:06.806Z,16.85
2018-04-09T07:41:36.037Z,16.90
2018-04-09T07:44:05.251Z,16.89
2018-04-09T07:46:35.507Z,16.94
2018-04-09T07:49:04.773Z,17.05
2018-04-09T07:51:33.967Z,17.20
2018-04-09T07:54:03.972Z,17.23
2018-04-09T07:56:33.188Z,17.33
2018-04-09T07:59:03.224Z,17.22
2018-04-09T08:01:32.433Z,17.17
2018-04-09T08:04:01.671Z,17.26
2018-04-09T08:06:30.870Z,17.20
2018-04-09T08:09:00.119Z,17.26
2018-04-09T08:11:29.382Z,16.99
2018-04-09T08:13:58.667Z,16.87
2018-04-09T08:16:27.863Z,16.95
2018-04-09T08:18:57.096Z,16.81
2018-04-09T08:21:27.091Z,16.65
2018-04-09T08:23:57.007Z,16.79
2018-04-09T08:26:26.234Z,16.89
2018-04-09T08:28:56.220Z,17.07
2018-04-09T08:31:26.197Z,17.18
2018-04-09T08:33:55.516Z,17.20
2018-04-09T08:36:24.730Z,16.99
2018-04-09T08:38:53.950Z,16.93
2018-04-09T08:41:23.938Z,16.88
2018-04-09T08:43:53.180Z,16.87
2018-04-09T08:46:23.150Z,16.94
2018-04-09T08:48:52.434Z,17.02
2018-04-09T08:51:21.642Z,17.13
2018-04-09T08:53:50.875Z,17.14
2018-04-09T08:56:20.882Z,17.15
2018-04-09T08:58:50.884Z,17.24
2018-04-09T09:01:20.140Z,17.30
2018-04-09T09:03:49.372Z,17.30
2018-04-09T09:06:18.591Z,17.43
2018-04-09T09:08:48.583Z,17.36
2018-04-09T09:11:17.850Z,17.34
2018-04-09T09:13:47.828Z,17.24
2018-04-09T09:16:17.857Z,17.24
2018-04-09T09:18:47.933Z,17.27
2018-04-09T09:21:17.209Z,17.23
2018-04-09T09:23:46.464Z,17.35
2018-04-09T09:26:16.539Z,17.40
2018-04-09T09:28:45.754Z,17.42
2018-04-09T09:31:14.986Z,17.54
2018-04-09T09:33:44.248Z,17.59
2018-04-09T09:36:14.580Z,17.56
2018-04-09T09:38:43.836Z,17.39
2018-04-09T09:41:13.067Z,17.43
2018-04-09T09:43:42.288Z,17.48
2018-04-09T09:46:12.315Z,17.43
2018-04-09T09:48:42.462Z,17.54
2018-04-09T09:51:11.710Z,17.50
2018-04-09T09:53:40.936Z,17.55
2018-04-09T09:56:10.164Z,17.44
2018-04-09T09:58:39.385Z,17.46
2018-04-09T10:01:09.464Z,17.44
2018-04-09T10:03:38.689Z,17.37
2018-04-09T10:06:07.920Z,17.59
2018-04-09T10:08:37.145Z,17.85
2018-04-09T10:11:06.382Z,18.00
2018-04-09T10:13:35.638Z,18.11
2018-04-09T10:16:05.521Z,18.05
2018-04-09T10:18:35.541Z,17.97
2018-04-09T10:21:04.760Z,18.06
2018-04-09T10:23:34.748Z,18.14
2018-04-09T10:26:03.948Z,18.23
2018-04-09T10:28:33.197Z,18.12
2018-04-09T10:31:02.418Z,18.29
2018-04-09T10:33:31.699Z,18.38
2018-04-09T10:36:00.933Z,18.34
2018-04-09T10:38:30.460Z,18.46
2018-04-09T10:41:00.455Z,18.62
2018-04-09T10:43:29.704Z,18.61
2018-04-09T10:45:58.904Z,18.69
2018-04-09T10:48:28.135Z,18.75
2018-04-09T10:50:57.344Z,18.87
2018-04-09T10:53:26.550Z,18.98
2018-04-09T10:55:56.572Z,18.89
2018-04-09T10:58:25.783Z,18.93
2018-04-09T11:00:55.836Z,18.90
2018-04-09T11:03:25.048Z,18.98
2018-04-09T11:05:54.304Z,18.97
2018-04-09T11:08:24.278Z,19.01
2018-04-09T11:10:53.523Z,19.08
2018-04-09T11:13:23.510Z,19.16
2018-04-09T11:15:53.527Z,19.22
2018-04-09T11:18:23.523Z,19.27
2018-04-09T11:20:52.794Z,19.32
2018-04-09T11:23:21.978Z,19.31
2018-04-09T11:25:51.193Z,19.26
2018-04-09T11:28:20.476Z,19.26
2018-04-09T11:30:49.758Z,19.30
2018-04-09T11:33:18.988Z,19.27
2018-04-09T11:35:48.216Z,19.25
2018-04-09T11:38:17.461Z,19.43
2018-04-09T11:40:47.428Z,19.55
2018-04-09T11:43:16.646Z,19.51
2018-04-09T11:45:45.914Z,19.47
2018-04-09T11:48:15.128Z,19.48
2018-04-09T11:50:44.365Z,19.50
2018-04-09T11:53:13.859Z,19.52
2018-04-09T11:55:43.862Z,19.59
2018-04-09T11:58:13.103Z,19.72
2018-04-09T12:00:42.304Z,19.73
2018-04-09T12:03:11.546Z,19.67
2018-04-09T12:05:41.064Z,19.71
2018-04-09T12:08:11.058Z,19.84
2018-04-09T12:10:40.304Z,20.02
2018-04-09T12:13:09.516Z,20.11
2018-04-09T12:15:38.869Z,20.17
2018-04-09T12:18:08.358Z,20.36
2018-04-09T12:20:37.553Z,20.49
2018-04-09T12:23:06.789Z,20.50
2018-04-09T12:25:36.013Z,20.56
2018-04-09T12:28:05.278Z,20.68
2018-04-09T12:30:34.530Z,20.73
2018-04-09T12:33:03.775Z,20.84
2018-04-09T12:35:33.001Z,20.95
2018-04-09T12:38:02.281Z,20.86
2018-04-09T12:40:31.634Z,20.82
2018-04-09T12:43:01.617Z,20.87
2018-04-09T12:45:31.564Z,20.86
2018-04-09T12:48:00.815Z,20.85
2018-04-09T12:50:30.806Z,20.85
2018-04-09T12:53:00.826Z,20.84
2018-04-09T12:55:30.819Z,20.97
2018-04-09T12:58:00.075Z,21.10
2018-04-09T13:00:29.287Z,21.22
2018-04-09T13:02:58.541Z,21.21
2018-04-09T13:05:28.608Z,21.14
2018-04-09T13:07:57.864Z,21.03
2018-04-09T13:10:27.860Z,21.03
2018-04-09T13:12:57.864Z,21.19
2018-04-09T13:15:27.092Z,21.35
2018-04-09T13:17:57.068Z,21.43
2018-04-09T13:20:27.129Z,21.52
2018-04-09T13:22:57.147Z,21.55
2018-04-09T13:25:27.121Z,21.53
2018-04-09T13:27:57.460Z,21.62
2018-04-09T13:30:27.659Z,21.77
2018-04-09T13:32:56.859Z,21.81
2018-04-09T13:35:26.109Z,21.91
2018-04-09T13:37:55.316Z,22.02
2018-04-09T13:40:24.583Z,22.18
2018-04-09T13:42:54.619Z,22.25
2018-04-09T13:45:23.877Z,22.25
2018-04-09T13:47:53.097Z,22.26
2018-04-09T13:50:23.417Z,22.24
2018-04-09T13:52:53.394Z,22.19
2018-04-09T13:55:22.630Z,22.12
2018-04-09T13:57:52.671Z,22.08
2018-04-09T14:00:21.898Z,22.01
2018-04-09T14:02:51.155Z,22.00
2018-04-09T14:05:20.370Z,22.04
2018-04-09T14:07:49.735Z,22.09
2018-04-09T14:10:19.948Z,22.05
2018-04-09T14:12:49.193Z,22.06
2018-04-09T14:15:18.452Z,22.19
2018-04-09T14:17:48.462Z,22.28
2018-04-09T14:20:18.469Z,22.32
2018-04-09T14:22:48.001Z,22.25
2018-04-09T14:25:18.026Z,22.33
2018-04-09T14:27:48.054Z,22.38
2018-04-09T14:30:17.273Z,22.43
2018-04-09T14:32:46.643Z,22.43
2018-04-09T14:35:16.679Z,22.45
2018-04-09T14:37:45.905Z,22.47
2018-04-09T14:40:15.146Z,22.51
2018-04-09T14:42:45.209Z,22.56
2018-04-09T14:45:14.426Z,22.64
2018-04-09T14:47:43.637Z,22.60
2018-04-09T14:50:13.663Z,22.57
2018-04-09T14:52:42.908Z,22.49
2018-04-09T14:55:12.144Z,22.41
2018-04-09T14:57:41.381Z,22.39
2018-04-09T15:00:11.000Z,22.36
2018-04-09T15:02:40.202Z,22.31
2018-04-09T15:05:09.483Z,22.27
2018-04-09T15:07:39.468Z,22.31
2018-04-09T15:10:08.794Z,22.29
2018-04-09T15:12:38.021Z,22.26
2018-04-09T15:15:07.295Z,22.20
2018-04-09T15:17:37.274Z,22.13
2018-04-09T15:20:06.626Z,22.07
2018-04-09T15:22:35.837Z,22.06
2018-04-09T15:25:05.077Z,22.06
2018-04-09T15:27:34.309Z,22.00
2018-04-09T15:30:03.594Z,21.96
2018-04-09T15:32:32.800Z,21.93
2018-04-09T15:35:02.900Z,21.91
2018-04-09T15:37:32.913Z,21.92
2018-04-09T15:40:02.153Z,21.95
2018-04-09T15:42:32.157Z,21.91
2018-04-09T15:45:01.393Z,21.90
2018-04-09T15:47:30.631Z,21.92
2018-04-09T15:50:00.613Z,21.84
2018-04-09T15:52:29.860Z,21.82
2018-04-09T15:54:59.837Z,21.81
2018-04-09T15:57:29.083Z,21.81
2018-04-09T15:59:58.284Z,21.83
2018-04-09T16:02:27.528Z,21.77
2018-04-09T16:04:56.776Z,21.78
2018-04-09T16:07:43.593Z,21.79
2018-04-09T16:10:12.906Z,21.76
2018-04-09T16:12:42.885Z,21.76
2018-04-09T16:15:12.891Z,21.74
2018-04-09T16:17:59.881Z,21.66
2018-04-09T16:20:29.082Z,21.62
2018-04-09T16:22:58.303Z,21.64
2018-04-09T16:25:27.550Z,21.60
2018-04-09T16:27:56.830Z,21.53
2018-04-09T16:30:26.039Z,21.49
2018-04-09T16:32:55.304Z,21.47
2018-04-09T16:35:24.579Z,21.45
2018-04-09T16:37:53.765Z,21.47
2018-04-09T16:40:25.242Z,21.46
2018-04-09T16:42:55.255Z,21.43
2018-04-09T16:45:24.468Z,21.38
2018-04-09T16:47:54.452Z,21.36
2018-04-09T16:50:23.700Z,21.37
2018-04-09T16:52:52.921Z,21.34
2018-04-09T16:55:22.152Z,21.31
2018-04-09T16:57:52.174Z,21.31
2018-04-09T17:00:21.417Z,21.29
2018-04-09T17:02:50.665Z,21.28
2018-04-09T17:05:20.682Z,21.23
2018-04-09T17:07:49.926Z,21.21
2018-04-09T17:10:19.189Z,21.20
2018-04-09T17:12:49.216Z,21.18
2018-04-09T17:15:18.471Z,21.17
2018-04-09T17:17:47.704Z,21.15
2018-04-09T17:20:16.956Z,21.11
2018-04-09T17:22:46.166Z,21.09
2018-04-09T17:25:15.426Z,21.06
2018-04-09T17:27:44.682Z,21.02
2018-04-09T17:30:14.851Z,20.97
2018-04-09T17:32:44.089Z,20.92
2018-04-09T17:35:13.359Z,20.90
2018-04-09T17:37:42.609Z,20.85
2018-04-09T17:40:11.830Z,20.83
2018-04-09T17:42:41.891Z,20.80
2018-04-09T17:45:11.097Z,20.76
2018-04-09T17:47:40.340Z,20.72
2018-04-09T17:50:10.346Z,20.68
2018-04-09T17:52:40.451Z,20.62
2018-04-09T17:55:09.652Z,20.63
2018-04-09T17:57:38.901Z,20.64
2018-04-09T18:00:08.178Z,20.67
2018-04-09T18:02:37.461Z,20.68
2018-04-09T18:05:06.768Z,20.70
2018-04-09T18:07:36.748Z,20.68
2018-04-09T18:10:06.016Z,20.59
2018-04-09T18:12:35.375Z,20.48
2018-04-09T18:15:05.366Z,20.46
2018-04-09T18:17:34.604Z,20.38
2018-04-09T18:20:04.610Z,20.34
2018-04-09T18:22:34.683Z,20.31
2018-04-09T18:25:03.857Z,20.27
2018-04-09T18:27:33.072Z,20.21
2018-04-09T18:30:02.519Z,20.16
2018-04-09T18:32:31.767Z,20.14
2018-04-09T18:35:01.030Z,20.11
2018-04-09T18:37:30.356Z,20.11
2018-04-09T18:39:59.664Z,20.11
2018-04-09T18:42:28.916Z,20.07
2018-04-09T18:44:58.972Z,20.06
2018-04-09T18:47:28.217Z,20.03
2018-04-09T18:49:57.495Z,20.04
2018-04-09T18:52:26.826Z,20.04
2018-04-09T18:54:56.882Z,20.05
2018-04-09T18:57:26.128Z,20.03
2018-04-09T18:59:56.161Z,19.97
2018-04-09T19:02:26.155Z,19.96
2018-04-09T19:04:55.394Z,19.92
2018-04-09T19:07:24.649Z,19.92
2018-04-09T19:09:53.941Z,19.89
2018-04-09T19:12:23.262Z,19.84
2018-04-09T19:14:52.511Z,19.81
2018-04-09T19:17:21.702Z,19.76
2018-04-09T19:22:26.487Z,19.64
2018-04-09T19:24:55.734Z,19.60
2018-04-09T19:27:25.035Z,19.52
2018-04-09T19:29:54.993Z,19.48
2018-04-09T19:32:25.062Z,19.47
2018-04-09T19:34:59.793Z,19.42
2018-04-09T19:37:34.498Z,19.39
2018-04-09T19:40:10.631Z,19.36
2018-04-09T19:42:40.292Z,19.33
2018-04-09T19:45:09.995Z,19.33
2018-04-09T19:47:39.807Z,19.32
2018-04-09T19:50:09.932Z,19.30
2018-04-09T19:52:39.608Z,19.28
2018-04-09T19:55:09.321Z,19.28
2018-04-09T19:57:39.056Z,19.26
2018-04-09T20:00:09.478Z,19.25
2018-04-09T20:02:39.956Z,19.23
2018-04-09T20:05:10.371Z,19.21
2018-04-09T20:10:31.829Z,19.14
2018-04-09T20:13:01.905Z,19.07
2018-04-09T20:15:32.410Z,19.01
2018-04-09T20:18:02.095Z,18.94
2018-04-09T20:20:31.873Z,18.91
2018-04-09T20:23:01.531Z,18.85
2018-04-09T20:25:32.290Z,18.78
2018-04-09T20:28:02.837Z,18.72
2018-04-09T20:30:33.318Z,18.65
2018-04-09T20:33:03.164Z,18.56
2018-04-09T20:35:33.072Z,18.49
2018-04-09T20:38:02.832Z,18.39
2018-04-09T20:40:32.474Z,18.33
2018-04-09T20:43:02.087Z,18.25
2018-04-09T20:45:31.753Z,18.19
2018-04-09T20:48:01.370Z,18.03
2018-04-09T20:50:31.148Z,18.00
2018-04-09T20:53:00.736Z,17.95
2018-04-09T20:55:30.086Z,17.91
2018-04-09T20:58:00.100Z,17.84
2018-04-09T21:00:29.370Z,17.84
2018-04-09T21:02:58.741Z,17.78
2018-04-09T21:05:28.009Z,17.78
2018-04-09T21:07:57.999Z,17.72
2018-04-09T21:10:27.537Z,17.70
2018-04-09T21:12:57.538Z,17.70
2018-04-09T21:15:27.566Z,17.62
2018-04-09T21:17:56.826Z,17.60
2018-04-09T21:20:26.079Z,17.56
2018-04-09T21:22:55.330Z,17.49
2018-04-09T21:25:24.611Z,17.49
2018-04-09T21:27:53.863Z,17.46
2018-04-09T21:30:23.173Z,17.46
2018-04-09T21:32:52.397Z,17.47
2018-04-09T21:35:21.649Z,17.47
2018-04-09T21:37:51.981Z,17.49
2018-04-09T21:40:21.985Z,17.46
2018-04-09T21:42:52.015Z,17.45
2018-04-09T21:45:21.990Z,17.41
2018-04-09T21:47:52.048Z,17.30
2018-04-09T21:50:21.329Z,17.32
2018-04-09T21:52:50.574Z,17.34
2018-04-09T21:55:19.806Z,17.31
2018-04-09T21:57:49.060Z,17.25
2018-04-09T22:00:18.291Z,17.26
2018-04-09T22:02:47.508Z,17.20
2018-04-09T22:05:17.549Z,17.25
2018-04-09T22:07:46.802Z,17.30
2018-04-09T22:10:16.034Z,17.35
2018-04-09T22:12:46.055Z,17.33
2018-04-09T22:15:16.082Z,17.37
2018-04-09T22:17:46.092Z,17.32
2018-04-09T22:20:16.087Z,17.33
2018-04-09T22:22:46.118Z,17.26
2018-04-09T22:25:16.114Z,17.27
2018-04-09T22:27:45.388Z,17.25
2018-04-09T22:30:14.621Z,17.25
2018-04-09T22:32:44.662Z,17.18
2018-04-09T22:35:14.633Z,17.19
2018-04-09T22:37:43.904Z,17.22
2018-04-09T22:40:13.169Z,17.21
2018-04-09T22:42:42.366Z,17.21
2018-04-09T22:45:11.643Z,17.17
2018-04-09T22:47:40.875Z,17.16
2018-04-09T22:50:10.147Z,17.08
2018-04-09T22:52:40.139Z,16.98
2018-04-09T22:55:09.404Z,16.90
2018-04-09T22:57:38.733Z,16.82
2018-04-09T23:00:07.971Z,16.85
2018-04-09T23:02:37.304Z,16.77
2018-04-09T23:05:06.538Z,16.79
2018-04-09T23:07:35.834Z,16.78
2018-04-09T23:10:05.158Z,16.84
2018-04-09T23:12:34.425Z,16.89
2018-04-09T23:15:03.692Z,16.89
2018-04-09T23:17:32.933Z,16.97
2018-04-09T23:20:02.178Z,17.03
2018-04-09T23:22:36.147Z,17.06
2018-04-09T23:25:05.377Z,17.08
2018-04-09T23:27:34.661Z,17.09
2018-04-09T23:30:04.982Z,17.13
2018-04-09T23:32:34.556Z,17.15
2018-04-09T23:35:03.754Z,17.14
2018-04-09T23:37:32.991Z,17.17
2018-04-09T23:40:02.995Z,17.19
2018-04-09T23:42:32.209Z,17.11
2018-04-09T23:45:02.199Z,17.11
2018-04-09T23:47:31.420Z,17.12
2018-04-09T23:50:01.436Z,17.09
2018-04-09T23:52:31.537Z,17.09
2018-04-09T23:55:00.805Z,17.12
2018-04-09T23:57:30.293Z,17.12
